sensor_id;sensor_type;location;lat;lon;timestamp;temperature;humidity
6978;DHT22;3529;53.244;10.414;2022-09-01T00:02:06;12.50;99.90
6978;DHT22;3529;53.244;10.414;2022-09-01T00:04:35;12.60;99.90
6978;DHT22;3529;53.244;10.414;2022-09-01T00:07:06;12.60;99.90
6978;DHT22;3529;53.244;10.414;2022-09-01T00:09:33;12.60;99.90
6978;DHT22;3529;53.244;10.414;2022-09-01T00:12:00;12.60;99.90
6978;DHT22;3529;53.244;10.414;2022-09-01T00:14:30;12.60;99.90
6978;DHT22;3529;53.244;10.414;2022-09-01T00:16:59;12.60;99.90
6978;DHT22;3529;53.244;10.414;2022-09-01T00:19:26;12.70;99.90
6978;DHT22;3529;53.244;10.414;2022-09-01T00:21:52;12.70;99.90
6978;DHT22;3529;53.244;10.414;2022-09-01T00:24:18;12.70;99.90
6978;DHT22;3529;53.244;10.414;2022-09-01T00:26:44;12.70;99.90
6978;DHT22;3529;53.244;10.414;2022-09-01T00:29:10;12.80;99.90
6978;DHT22;3529;53.244;10.414;2022-09-01T00:31:37;12.70;99.90
6978;DHT22;3529;53.244;10.414;2022-09-01T00:34:03;12.80;99.90
6978;DHT22;3529;53.244;10.414;2022-09-01T00:36:29;12.80;99.90
6978;DHT22;3529;53.244;10.414;2022-09-01T00:38:54;12.70;99.90
6978;DHT22;3529;53.244;10.414;2022-09-01T00:41:23;12.70;99.90
6978;DHT22;3529;53.244;10.414;2022-09-01T00:43:51;12.70;99.90
6978;DHT22;3529;53.244;10.414;2022-09-01T00:46:30;12.70;99.90
6978;DHT22;3529;53.244;10.414;2022-09-01T00:51:46;12.50;99.90
6978;DHT22;3529;53.244;10.414;2022-09-01T00:54:19;12.40;99.90
6978;DHT22;3529;53.244;10.414;2022-09-01T00:56:46;12.40;99.90
6978;DHT22;3529;53.244;10.414;2022-09-01T00:59:13;12.30;99.90
6978;DHT22;3529;53.244;10.414;2022-09-01T01:01:40;12.30;99.90
6978;DHT22;3529;53.244;10.414;2022-09-01T01:04:07;12.20;99.90
6978;DHT22;3529;53.244;10.414;2022-09-01T01:06:41;12.20;99.90
6978;DHT22;3529;53.244;10.414;2022-09-01T01:09:08;12.20;99.90
6978;DHT22;3529;53.244;10.414;2022-09-01T01:11:34;12.10;99.90
6978;DHT22;3529;53.244;10.414;2022-09-01T01:14:07;12.20;99.90
6978;DHT22;3529;53.244;10.414;2022-09-01T01:16:39;12.20;99.90
6978;DHT22;3529;53.244;10.414;2022-09-01T01:22:09;12.20;99.90
6978;DHT22;3529;53.244;10.414;2022-09-01T01:24:55;12.20;99.90
6978;DHT22;3529;53.244;10.414;2022-09-01T01:27:22;12.20;99.90
6978;DHT22;3529;53.244;10.414;2022-09-01T01:29:47;12.20;99.90
6978;DHT22;3529;53.244;10.414;2022-09-01T01:32:19;12.20;99.90
6978;DHT22;3529;53.244;10.414;2022-09-01T01:34:45;12.20;99.90
6978;DHT22;3529;53.244;10.414;2022-09-01T01:37:12;12.10;99.90
6978;DHT22;3529;53.244;10.414;2022-09-01T01:39:41;12.10;99.90
6978;DHT22;3529;53.244;10.414;2022-09-01T01:42:10;12.10;99.90
6978;DHT22;3529;53.244;10.414;2022-09-01T01:44:37;12.10;99.90
6978;DHT22;3529;53.244;10.414;2022-09-01T01:47:05;12.00;99.90
6978;DHT22;3529;53.244;10.414;2022-09-01T01:49:33;12.00;99.90
6978;DHT22;3529;53.244;10.414;2022-09-01T01:52:00;11.90;99.90
6978;DHT22;3529;53.244;10.414;2022-09-01T01:54:26;11.90;99.90
6978;DHT22;3529;53.244;10.414;2022-09-01T01:56:57;11.80;99.90
6978;DHT22;3529;53.244;10.414;2022-09-01T01:59:23;11.80;99.90
6978;DHT22;3529;53.244;10.414;2022-09-01T02:01:50;11.70;99.90
6978;DHT22;3529;53.244;10.414;2022-09-01T02:04:16;11.70;99.90
6978;DHT22;3529;53.244;10.414;2022-09-01T02:06:43;11.70;99.90
6978;DHT22;3529;53.244;10.414;2022-09-01T02:09:14;11.70;99.90
6978;DHT22;3529;53.244;10.414;2022-09-01T02:11:40;11.70;99.90
6978;DHT22;3529;53.244;10.414;2022-09-01T02:14:07;11.70;99.90
6978;DHT22;3529;53.244;10.414;2022-09-01T02:16:33;11.70;99.90
6978;DHT22;3529;53.244;10.414;2022-09-01T02:19:02;11.70;99.90
6978;DHT22;3529;53.244;10.414;2022-09-01T02:21:29;11.60;99.90
6978;DHT22;3529;53.244;10.414;2022-09-01T02:24:01;11.60;99.90
6978;DHT22;3529;53.244;10.414;2022-09-01T02:26:33;11.60;99.90
6978;DHT22;3529;53.244;10.414;2022-09-01T02:29:01;11.50;99.90
6978;DHT22;3529;53.244;10.414;2022-09-01T02:31:27;11.50;99.90
6978;DHT22;3529;53.244;10.414;2022-09-01T02:33:53;11.40;99.90
6978;DHT22;3529;53.244;10.414;2022-09-01T02:36:19;11.40;99.90
6978;DHT22;3529;53.244;10.414;2022-09-01T02:38:46;11.30;99.90
6978;DHT22;3529;53.244;10.414;2022-09-01T02:41:14;11.30;99.90
6978;DHT22;3529;53.244;10.414;2022-09-01T02:43:40;11.30;99.90
6978;DHT22;3529;53.244;10.414;2022-09-01T02:46:08;11.20;99.90
6978;DHT22;3529;53.244;10.414;2022-09-01T02:48:37;11.20;99.90
6978;DHT22;3529;53.244;10.414;2022-09-01T02:51:06;11.10;99.90
6978;DHT22;3529;53.244;10.414;2022-09-01T02:53:33;11.00;99.90
6978;DHT22;3529;53.244;10.414;2022-09-01T02:56:03;11.00;99.90
6978;DHT22;3529;53.244;10.414;2022-09-01T02:58:33;10.90;99.90
6978;DHT22;3529;53.244;10.414;2022-09-01T03:01:17;10.90;99.90
6978;DHT22;3529;53.244;10.414;2022-09-01T03:03:45;10.80;99.90
6978;DHT22;3529;53.244;10.414;2022-09-01T03:06:11;10.80;99.90
6978;DHT22;3529;53.244;10.414;2022-09-01T03:08:37;10.70;99.90
6978;DHT22;3529;53.244;10.414;2022-09-01T03:11:05;10.60;99.90
6978;DHT22;3529;53.244;10.414;2022-09-01T03:13:37;10.60;99.90
6978;DHT22;3529;53.244;10.414;2022-09-01T03:16:04;10.50;99.90
6978;DHT22;3529;53.244;10.414;2022-09-01T03:18:30;10.50;99.90
6978;DHT22;3529;53.244;10.414;2022-09-01T03:20:56;10.50;99.90
6978;DHT22;3529;53.244;10.414;2022-09-01T03:23:22;10.40;99.90
6978;DHT22;3529;53.244;10.414;2022-09-01T03:25:49;10.40;99.90
6978;DHT22;3529;53.244;10.414;2022-09-01T03:28:16;10.40;99.90
6978;DHT22;3529;53.244;10.414;2022-09-01T03:30:54;10.30;99.90
6978;DHT22;3529;53.244;10.414;2022-09-01T03:33:22;10.30;99.90
6978;DHT22;3529;53.244;10.414;2022-09-01T03:35:49;10.30;99.90
6978;DHT22;3529;53.244;10.414;2022-09-01T03:38:15;10.30;99.90
6978;DHT22;3529;53.244;10.414;2022-09-01T03:40:45;10.20;99.90
6978;DHT22;3529;53.244;10.414;2022-09-01T03:43:11;10.20;99.90
6978;DHT22;3529;53.244;10.414;2022-09-01T03:45:38;10.10;99.90
6978;DHT22;3529;53.244;10.414;2022-09-01T03:48:05;10.00;99.90
6978;DHT22;3529;53.244;10.414;2022-09-01T03:50:34;10.00;99.90
6978;DHT22;3529;53.244;10.414;2022-09-01T03:53:01;10.00;99.90
6978;DHT22;3529;53.244;10.414;2022-09-01T03:55:29;10.00;99.90
6978;DHT22;3529;53.244;10.414;2022-09-01T03:57:58;9.90;99.90
6978;DHT22;3529;53.244;10.414;2022-09-01T04:00:35;9.90;99.90
6978;DHT22;3529;53.244;10.414;2022-09-01T04:03:03;9.80;99.90
6978;DHT22;3529;53.244;10.414;2022-09-01T04:05:30;9.80;99.90
6978;DHT22;3529;53.244;10.414;2022-09-01T04:08:00;9.80;99.90
6978;DHT22;3529;53.244;10.414;2022-09-01T04:10:28;9.70;99.90
6978;DHT22;3529;53.244;10.414;2022-09-01T04:12:56;9.60;99.90
6978;DHT22;3529;53.244;10.414;2022-09-01T04:15:24;9.60;99.90
6978;DHT22;3529;53.244;10.414;2022-09-01T04:17:50;9.60;99.90
6978;DHT22;3529;53.244;10.414;2022-09-01T04:20:41;9.50;99.90
6978;DHT22;3529;53.244;10.414;2022-09-01T04:23:17;9.50;99.90
6978;DHT22;3529;53.244;10.414;2022-09-01T04:25:49;9.40;99.90
6978;DHT22;3529;53.244;10.414;2022-09-01T04:28:16;9.40;99.90
6978;DHT22;3529;53.244;10.414;2022-09-01T04:30:55;9.40;99.90
6978;DHT22;3529;53.244;10.414;2022-09-01T04:33:25;9.40;99.90
6978;DHT22;3529;53.244;10.414;2022-09-01T04:35:52;9.30;99.90
6978;DHT22;3529;53.244;10.414;2022-09-01T04:38:22;9.30;99.90
6978;DHT22;3529;53.244;10.414;2022-09-01T04:40:49;9.20;99.90
6978;DHT22;3529;53.244;10.414;2022-09-01T04:43:15;9.30;99.90
6978;DHT22;3529;53.244;10.414;2022-09-01T04:45:41;9.30;99.90
6978;DHT22;3529;53.244;10.414;2022-09-01T04:48:07;9.30;99.90
6978;DHT22;3529;53.244;10.414;2022-09-01T04:50:33;9.30;99.90
6978;DHT22;3529;53.244;10.414;2022-09-01T04:53:01;9.30;99.90
6978;DHT22;3529;53.244;10.414;2022-09-01T04:57:49;9.30;99.90
6978;DHT22;3529;53.244;10.414;2022-09-01T05:00:20;9.30;99.90
6978;DHT22;3529;53.244;10.414;2022-09-01T05:03:00;9.40;99.90
6978;DHT22;3529;53.244;10.414;2022-09-01T05:05:35;9.40;99.90
6978;DHT22;3529;53.244;10.414;2022-09-01T05:08:11;9.40;99.90
6978;DHT22;3529;53.244;10.414;2022-09-01T05:10:43;9.40;99.90
6978;DHT22;3529;53.244;10.414;2022-09-01T05:13:11;9.40;99.90
6978;DHT22;3529;53.244;10.414;2022-09-01T05:15:39;9.40;99.90
6978;DHT22;3529;53.244;10.414;2022-09-01T05:18:15;9.40;99.90
6978;DHT22;3529;53.244;10.414;2022-09-01T05:20:48;9.40;99.90
6978;DHT22;3529;53.244;10.414;2022-09-01T05:23:14;9.40;99.90
6978;DHT22;3529;53.244;10.414;2022-09-01T05:25:46;9.50;99.90
6978;DHT22;3529;53.244;10.414;2022-09-01T05:28:15;9.50;99.90
6978;DHT22;3529;53.244;10.414;2022-09-01T05:30:43;9.60;99.90
6978;DHT22;3529;53.244;10.414;2022-09-01T05:33:10;9.60;99.90
6978;DHT22;3529;53.244;10.414;2022-09-01T05:35:40;9.70;99.90
6978;DHT22;3529;53.244;10.414;2022-09-01T05:38:09;9.70;99.90
6978;DHT22;3529;53.244;10.414;2022-09-01T05:40:38;9.80;99.90
6978;DHT22;3529;53.244;10.414;2022-09-01T05:43:07;9.90;99.90
6978;DHT22;3529;53.244;10.414;2022-09-01T05:45:35;9.90;99.90
6978;DHT22;3529;53.244;10.414;2022-09-01T05:48:01;10.00;99.90
6978;DHT22;3529;53.244;10.414;2022-09-01T05:50:27;10.10;99.90
6978;DHT22;3529;53.244;10.414;2022-09-01T05:52:53;10.20;99.90
6978;DHT22;3529;53.244;10.414;2022-09-01T05:55:19;10.40;99.90
6978;DHT22;3529;53.244;10.414;2022-09-01T05:57:44;10.50;99.90
6978;DHT22;3529;53.244;10.414;2022-09-01T06:00:12;10.70;99.90
6978;DHT22;3529;53.244;10.414;2022-09-01T06:02:42;10.80;99.90
6978;DHT22;3529;53.244;10.414;2022-09-01T06:05:08;11.00;99.90
6978;DHT22;3529;53.244;10.414;2022-09-01T06:07:35;11.10;99.90
6978;DHT22;3529;53.244;10.414;2022-09-01T06:10:04;11.20;99.90
6978;DHT22;3529;53.244;10.414;2022-09-01T06:12:30;11.30;99.90
6978;DHT22;3529;53.244;10.414;2022-09-01T06:14:55;11.40;99.90
6978;DHT22;3529;53.244;10.414;2022-09-01T06:17:23;11.50;99.90
6978;DHT22;3529;53.244;10.414;2022-09-01T06:19:50;11.60;99.90
6978;DHT22;3529;53.244;10.414;2022-09-01T06:22:18;11.70;99.90
6978;DHT22;3529;53.244;10.414;2022-09-01T06:24:45;11.80;99.90
6978;DHT22;3529;53.244;10.414;2022-09-01T06:27:12;11.90;99.90
6978;DHT22;3529;53.244;10.414;2022-09-01T06:29:43;12.00;99.90
6978;DHT22;3529;53.244;10.414;2022-09-01T06:32:10;12.10;99.90
6978;DHT22;3529;53.244;10.414;2022-09-01T06:34:41;12.20;99.90
6978;DHT22;3529;53.244;10.414;2022-09-01T06:37:09;12.30;99.90
6978;DHT22;3529;53.244;10.414;2022-09-01T06:39:35;12.40;99.90
6978;DHT22;3529;53.244;10.414;2022-09-01T06:42:01;12.50;99.90
6978;DHT22;3529;53.244;10.414;2022-09-01T06:44:27;12.60;99.90
6978;DHT22;3529;53.244;10.414;2022-09-01T06:46:55;12.70;99.90
6978;DHT22;3529;53.244;10.414;2022-09-01T06:49:21;12.80;99.90
6978;DHT22;3529;53.244;10.414;2022-09-01T06:52:00;12.90;99.90
6978;DHT22;3529;53.244;10.414;2022-09-01T06:54:27;13.00;99.90
6978;DHT22;3529;53.244;10.414;2022-09-01T06:56:59;13.00;99.90
6978;DHT22;3529;53.244;10.414;2022-09-01T06:59:28;13.10;99.90
6978;DHT22;3529;53.244;10.414;2022-09-01T07:01:56;13.20;99.90
6978;DHT22;3529;53.244;10.414;2022-09-01T07:04:26;13.40;99.90
6978;DHT22;3529;53.244;10.414;2022-09-01T07:06:54;13.50;99.90
6978;DHT22;3529;53.244;10.414;2022-09-01T07:09:19;13.70;99.90
6978;DHT22;3529;53.244;10.414;2022-09-01T07:11:45;13.90;99.90
6978;DHT22;3529;53.244;10.414;2022-09-01T07:14:11;14.20;99.90
6978;DHT22;3529;53.244;10.414;2022-09-01T07:16:41;14.40;99.90
6978;DHT22;3529;53.244;10.414;2022-09-01T07:19:10;14.60;99.90
6978;DHT22;3529;53.244;10.414;2022-09-01T07:21:37;14.70;99.90
6978;DHT22;3529;53.244;10.414;2022-09-01T07:24:04;14.90;99.90
6978;DHT22;3529;53.244;10.414;2022-09-01T07:26:31;15.10;99.90
6978;DHT22;3529;53.244;10.414;2022-09-01T07:28:59;15.20;99.90
6978;DHT22;3529;53.244;10.414;2022-09-01T07:31:33;15.30;99.90
6978;DHT22;3529;53.244;10.414;2022-09-01T07:34:02;15.40;99.90
6978;DHT22;3529;53.244;10.414;2022-09-01T07:36:30;15.50;99.90
6978;DHT22;3529;53.244;10.414;2022-09-01T07:38:56;15.50;99.90
6978;DHT22;3529;53.244;10.414;2022-09-01T07:41:24;15.70;99.90
6978;DHT22;3529;53.244;10.414;2022-09-01T07:43:51;15.70;99.90
6978;DHT22;3529;53.244;10.414;2022-09-01T07:46:21;15.90;99.90
6978;DHT22;3529;53.244;10.414;2022-09-01T07:48:48;16.00;99.90
6978;DHT22;3529;53.244;10.414;2022-09-01T07:51:15;16.20;99.90
6978;DHT22;3529;53.244;10.414;2022-09-01T07:53:45;16.30;99.90
6978;DHT22;3529;53.244;10.414;2022-09-01T07:56:13;16.50;99.90
6978;DHT22;3529;53.244;10.414;2022-09-01T07:58:40;16.70;99.90
6978;DHT22;3529;53.244;10.414;2022-09-01T08:01:11;16.80;99.90
6978;DHT22;3529;53.244;10.414;2022-09-01T08:03:39;17.00;99.90
6978;DHT22;3529;53.244;10.414;2022-09-01T08:06:07;17.00;99.90
6978;DHT22;3529;53.244;10.414;2022-09-01T08:08:34;17.20;99.90
6978;DHT22;3529;53.244;10.414;2022-09-01T08:11:01;17.20;99.90
6978;DHT22;3529;53.244;10.414;2022-09-01T08:13:26;17.30;99.90
6978;DHT22;3529;53.244;10.414;2022-09-01T08:15:52;17.50;99.90
6978;DHT22;3529;53.244;10.414;2022-09-01T08:18:18;17.60;99.90
6978;DHT22;3529;53.244;10.414;2022-09-01T08:20:44;17.70;99.90
6978;DHT22;3529;53.244;10.414;2022-09-01T08:23:14;17.90;99.90
6978;DHT22;3529;53.244;10.414;2022-09-01T08:25:42;17.90;99.90
6978;DHT22;3529;53.244;10.414;2022-09-01T08:28:09;18.00;99.90
6978;DHT22;3529;53.244;10.414;2022-09-01T08:30:37;18.00;99.90
6978;DHT22;3529;53.244;10.414;2022-09-01T08:33:03;18.00;99.90
6978;DHT22;3529;53.244;10.414;2022-09-01T08:35:29;18.00;99.90
6978;DHT22;3529;53.244;10.414;2022-09-01T08:37:56;18.00;99.90
6978;DHT22;3529;53.244;10.414;2022-09-01T08:40:22;18.00;99.90
6978;DHT22;3529;53.244;10.414;2022-09-01T08:46:01;18.10;99.90
6978;DHT22;3529;53.244;10.414;2022-09-01T08:48:38;18.30;99.90
6978;DHT22;3529;53.244;10.414;2022-09-01T08:51:34;18.40;99.90
6978;DHT22;3529;53.244;10.414;2022-09-01T08:56:48;18.70;99.90
6978;DHT22;3529;53.244;10.414;2022-09-01T08:59:17;18.70;99.90
6978;DHT22;3529;53.244;10.414;2022-09-01T09:10:02;19.00;99.90
6978;DHT22;3529;53.244;10.414;2022-09-01T09:12:55;19.10;99.90
6978;DHT22;3529;53.244;10.414;2022-09-01T09:15:41;19.00;99.90
6978;DHT22;3529;53.244;10.414;2022-09-01T09:18:15;19.10;99.90
6978;DHT22;3529;53.244;10.414;2022-09-01T09:20:42;19.10;99.90
6978;DHT22;3529;53.244;10.414;2022-09-01T09:23:38;19.10;99.90
6978;DHT22;3529;53.244;10.414;2022-09-01T09:26:01;19.20;99.90
6978;DHT22;3529;53.244;10.414;2022-09-01T09:28:27;19.30;99.90
6978;DHT22;3529;53.244;10.414;2022-09-01T09:31:28;19.40;99.90
6978;DHT22;3529;53.244;10.414;2022-09-01T09:33:54;19.60;99.90
6978;DHT22;3529;53.244;10.414;2022-09-01T09:36:24;19.80;99.90
6978;DHT22;3529;53.244;10.414;2022-09-01T09:39:12;19.80;99.90
6978;DHT22;3529;53.244;10.414;2022-09-01T09:41:39;19.80;99.90
6978;DHT22;3529;53.244;10.414;2022-09-01T09:44:14;19.80;99.90
6978;DHT22;3529;53.244;10.414;2022-09-01T09:46:43;19.90;99.90
6978;DHT22;3529;53.244;10.414;2022-09-01T09:49:27;20.00;99.90
6978;DHT22;3529;53.244;10.414;2022-09-01T09:52:15;20.10;99.90
6978;DHT22;3529;53.244;10.414;2022-09-01T09:54:59;20.50;99.90
6978;DHT22;3529;53.244;10.414;2022-09-01T09:57:25;20.90;99.90
6978;DHT22;3529;53.244;10.414;2022-09-01T10:00:30;21.30;99.90
6978;DHT22;3529;53.244;10.414;2022-09-01T10:02:56;22.80;99.90
6978;DHT22;3529;53.244;10.414;2022-09-01T10:05:46;24.40;99.90
6978;DHT22;3529;53.244;10.414;2022-09-01T10:10:52;27.30;99.90
6978;DHT22;3529;53.244;10.414;2022-09-01T10:13:21;28.50;99.90
6978;DHT22;3529;53.244;10.414;2022-09-01T10:15:53;29.60;98.00
6978;DHT22;3529;53.244;10.414;2022-09-01T10:18:23;30.30;94.50
6978;DHT22;3529;53.244;10.414;2022-09-01T10:21:12;30.70;93.50
6978;DHT22;3529;53.244;10.414;2022-09-01T10:23:39;31.00;92.20
6978;DHT22;3529;53.244;10.414;2022-09-01T10:26:10;30.70;91.20
6978;DHT22;3529;53.244;10.414;2022-09-01T10:28:46;29.50;90.30
6978;DHT22;3529;53.244;10.414;2022-09-01T10:31:16;28.20;90.70
6978;DHT22;3529;53.244;10.414;2022-09-01T10:33:41;27.30;90.80
6978;DHT22;3529;53.244;10.414;2022-09-01T10:36:08;26.70;91.70
6978;DHT22;3529;53.244;10.414;2022-09-01T10:38:34;26.10;92.70
6978;DHT22;3529;53.244;10.414;2022-09-01T10:40:59;25.70;92.70
6978;DHT22;3529;53.244;10.414;2022-09-01T10:48:51;24.20;93.60
6978;DHT22;3529;53.244;10.414;2022-09-01T10:53:52;23.60;93.90
6978;DHT22;3529;53.244;10.414;2022-09-01T10:56:41;23.50;93.80
6978;DHT22;3529;53.244;10.414;2022-09-01T11:04:23;23.70;93.60
6978;DHT22;3529;53.244;10.414;2022-09-01T11:07:29;24.10;94.10
6978;DHT22;3529;53.244;10.414;2022-09-01T11:17:55;24.80;93.30
6978;DHT22;3529;53.244;10.414;2022-09-01T11:20:39;25.10;93.40
6978;DHT22;3529;53.244;10.414;2022-09-01T11:23:29;25.40;94.30
6978;DHT22;3529;53.244;10.414;2022-09-01T11:26:00;25.10;94.30
6978;DHT22;3529;53.244;10.414;2022-09-01T11:42:05;22.40;94.70
6978;DHT22;3529;53.244;10.414;2022-09-01T11:44:50;22.10;95.50
6978;DHT22;3529;53.244;10.414;2022-09-01T11:47:35;21.80;95.80
6978;DHT22;3529;53.244;10.414;2022-09-01T11:50:27;21.60;96.40
6978;DHT22;3529;53.244;10.414;2022-09-01T11:53:13;22.30;96.90
6978;DHT22;3529;53.244;10.414;2022-09-01T11:55:43;23.60;96.40
6978;DHT22;3529;53.244;10.414;2022-09-01T11:58:27;24.60;95.40
6978;DHT22;3529;53.244;10.414;2022-09-01T12:00:57;25.50;94.50
6978;DHT22;3529;53.244;10.414;2022-09-01T12:03:35;25.20;93.90
6978;DHT22;3529;53.244;10.414;2022-09-01T12:06:04;24.60;94.30
6978;DHT22;3529;53.244;10.414;2022-09-01T12:08:39;24.00;94.00
6978;DHT22;3529;53.244;10.414;2022-09-01T12:11:11;23.50;94.30
6978;DHT22;3529;53.244;10.414;2022-09-01T12:13:39;22.90;94.80
6978;DHT22;3529;53.244;10.414;2022-09-01T12:16:09;22.50;95.50
6978;DHT22;3529;53.244;10.414;2022-09-01T12:18:46;23.10;97.50
6978;DHT22;3529;53.244;10.414;2022-09-01T12:23:48;25.80;96.00
6978;DHT22;3529;53.244;10.414;2022-09-01T12:26:18;26.80;95.60
6978;DHT22;3529;53.244;10.414;2022-09-01T12:28:45;27.50;93.50
6978;DHT22;3529;53.244;10.414;2022-09-01T12:31:17;28.10;93.50
6978;DHT22;3529;53.244;10.414;2022-09-01T12:33:43;28.60;92.60
6978;DHT22;3529;53.244;10.414;2022-09-01T12:36:33;29.00;92.20
6978;DHT22;3529;53.244;10.414;2022-09-01T12:39:23;29.30;92.70
6978;DHT22;3529;53.244;10.414;2022-09-01T12:47:10;30.00;91.60
6978;DHT22;3529;53.244;10.414;2022-09-01T12:49:47;29.50;87.70
6978;DHT22;3529;53.244;10.414;2022-09-01T12:54:49;27.00;88.20
6978;DHT22;3529;53.244;10.414;2022-09-01T12:57:25;25.90;90.00
6978;DHT22;3529;53.244;10.414;2022-09-01T13:02:39;25.70;91.70
6978;DHT22;3529;53.244;10.414;2022-09-01T13:05:27;26.10;92.30
6978;DHT22;3529;53.244;10.414;2022-09-01T13:07:59;26.70;91.20
6978;DHT22;3529;53.244;10.414;2022-09-01T13:10:29;27.30;93.00
6978;DHT22;3529;53.244;10.414;2022-09-01T13:12:56;27.60;90.90
6978;DHT22;3529;53.244;10.414;2022-09-01T13:15:23;27.40;91.00
6978;DHT22;3529;53.244;10.414;2022-09-01T13:17:50;26.70;90.90
6978;DHT22;3529;53.244;10.414;2022-09-01T13:20:16;26.00;91.50
6978;DHT22;3529;53.244;10.414;2022-09-01T13:22:42;25.30;91.40
6978;DHT22;3529;53.244;10.414;2022-09-01T13:25:10;24.70;92.40
6978;DHT22;3529;53.244;10.414;2022-09-01T13:27:38;24.30;92.60
6978;DHT22;3529;53.244;10.414;2022-09-01T13:30:10;23.90;93.00
6978;DHT22;3529;53.244;10.414;2022-09-01T13:32:38;23.90;93.00
6978;DHT22;3529;53.244;10.414;2022-09-01T13:35:04;23.80;93.40
6978;DHT22;3529;53.244;10.414;2022-09-01T13:37:30;23.60;93.20
6978;DHT22;3529;53.244;10.414;2022-09-01T13:39:56;23.40;93.50
6978;DHT22;3529;53.244;10.414;2022-09-01T13:42:21;23.30;93.60
6978;DHT22;3529;53.244;10.414;2022-09-01T13:44:47;23.30;94.20
6978;DHT22;3529;53.244;10.414;2022-09-01T13:47:13;23.30;93.80
6978;DHT22;3529;53.244;10.414;2022-09-01T13:49:38;23.30;94.00
6978;DHT22;3529;53.244;10.414;2022-09-01T13:52:04;23.30;94.10
6978;DHT22;3529;53.244;10.414;2022-09-01T13:54:30;23.20;94.20
6978;DHT22;3529;53.244;10.414;2022-09-01T13:56:56;23.20;94.50
6978;DHT22;3529;53.244;10.414;2022-09-01T13:59:22;23.20;95.20
6978;DHT22;3529;53.244;10.414;2022-09-01T14:01:47;23.20;95.40
6978;DHT22;3529;53.244;10.414;2022-09-01T14:04:13;23.10;95.50
6978;DHT22;3529;53.244;10.414;2022-09-01T14:06:40;23.00;94.90
6978;DHT22;3529;53.244;10.414;2022-09-01T14:09:06;22.90;95.30
6978;DHT22;3529;53.244;10.414;2022-09-01T14:11:31;22.70;95.60
6978;DHT22;3529;53.244;10.414;2022-09-01T14:13:57;22.50;95.20
6978;DHT22;3529;53.244;10.414;2022-09-01T14:16:23;22.30;94.90
6978;DHT22;3529;53.244;10.414;2022-09-01T14:18:48;22.10;95.00
6978;DHT22;3529;53.244;10.414;2022-09-01T14:21:15;22.00;95.30
6978;DHT22;3529;53.244;10.414;2022-09-01T14:23:42;21.80;95.40
6978;DHT22;3529;53.244;10.414;2022-09-01T14:26:10;21.90;96.50
6978;DHT22;3529;53.244;10.414;2022-09-01T14:28:37;22.30;96.00
6978;DHT22;3529;53.244;10.414;2022-09-01T14:31:08;22.90;96.60
6978;DHT22;3529;53.244;10.414;2022-09-01T14:33:35;23.50;96.20
6978;DHT22;3529;53.244;10.414;2022-09-01T14:36:00;24.00;95.70
6978;DHT22;3529;53.244;10.414;2022-09-01T14:38:28;24.40;95.30
6978;DHT22;3529;53.244;10.414;2022-09-01T14:40:53;24.80;95.70
6978;DHT22;3529;53.244;10.414;2022-09-01T14:43:19;25.10;95.80
6978;DHT22;3529;53.244;10.414;2022-09-01T14:45:46;25.20;94.70
6978;DHT22;3529;53.244;10.414;2022-09-01T14:48:13;25.30;95.90
6978;DHT22;3529;53.244;10.414;2022-09-01T14:50:42;25.40;95.60
6978;DHT22;3529;53.244;10.414;2022-09-01T14:53:08;25.30;95.50
6978;DHT22;3529;53.244;10.414;2022-09-01T14:55:34;25.20;95.40
6978;DHT22;3529;53.244;10.414;2022-09-01T14:58:00;25.00;96.00
6978;DHT22;3529;53.244;10.414;2022-09-01T15:00:26;24.80;95.90
6978;DHT22;3529;53.244;10.414;2022-09-01T15:02:53;24.60;95.30
6978;DHT22;3529;53.244;10.414;2022-09-01T15:05:19;24.40;95.70
6978;DHT22;3529;53.244;10.414;2022-09-01T15:07:45;24.40;95.60
6978;DHT22;3529;53.244;10.414;2022-09-01T15:10:15;24.40;96.00
6978;DHT22;3529;53.244;10.414;2022-09-01T15:12:41;24.40;95.70
6978;DHT22;3529;53.244;10.414;2022-09-01T15:15:07;24.30;95.60
6978;DHT22;3529;53.244;10.414;2022-09-01T15:17:33;24.30;95.70
6978;DHT22;3529;53.244;10.414;2022-09-01T15:19:59;24.20;95.70
6978;DHT22;3529;53.244;10.414;2022-09-01T15:22:46;24.20;95.70
6978;DHT22;3529;53.244;10.414;2022-09-01T15:25:12;24.10;95.20
6978;DHT22;3529;53.244;10.414;2022-09-01T15:27:38;24.00;95.10
6978;DHT22;3529;53.244;10.414;2022-09-01T15:30:04;24.00;95.40
6978;DHT22;3529;53.244;10.414;2022-09-01T15:32:40;23.90;95.60
6978;DHT22;3529;53.244;10.414;2022-09-01T15:35:07;23.90;96.10
6978;DHT22;3529;53.244;10.414;2022-09-01T15:37:33;23.90;96.70
6978;DHT22;3529;53.244;10.414;2022-09-01T15:39:59;23.90;96.00
6978;DHT22;3529;53.244;10.414;2022-09-01T15:42:24;23.80;95.40
6978;DHT22;3529;53.244;10.414;2022-09-01T15:44:50;23.70;95.60
6978;DHT22;3529;53.244;10.414;2022-09-01T15:47:16;23.50;96.20
6978;DHT22;3529;53.244;10.414;2022-09-01T15:49:41;23.40;96.20
6978;DHT22;3529;53.244;10.414;2022-09-01T15:52:07;23.10;96.20
6978;DHT22;3529;53.244;10.414;2022-09-01T15:54:36;22.80;96.30
6978;DHT22;3529;53.244;10.414;2022-09-01T15:57:03;22.40;95.70
6978;DHT22;3529;53.244;10.414;2022-09-01T15:59:29;22.30;96.00
6978;DHT22;3529;53.244;10.414;2022-09-01T16:01:55;22.10;95.70
6978;DHT22;3529;53.244;10.414;2022-09-01T16:04:21;22.10;96.10
6978;DHT22;3529;53.244;10.414;2022-09-01T16:06:48;22.00;96.70
6978;DHT22;3529;53.244;10.414;2022-09-01T16:09:16;22.00;96.60
6978;DHT22;3529;53.244;10.414;2022-09-01T16:11:43;21.90;96.30
6978;DHT22;3529;53.244;10.414;2022-09-01T16:14:09;21.90;96.20
6978;DHT22;3529;53.244;10.414;2022-09-01T16:16:55;21.80;95.70
6978;DHT22;3529;53.244;10.414;2022-09-01T16:22:27;21.80;95.50
6978;DHT22;3529;53.244;10.414;2022-09-01T16:24:54;21.70;95.80
6978;DHT22;3529;53.244;10.414;2022-09-01T16:27:33;21.60;96.50
6978;DHT22;3529;53.244;10.414;2022-09-01T16:30:11;21.60;96.50
6978;DHT22;3529;53.244;10.414;2022-09-01T16:32:43;21.60;96.90
6978;DHT22;3529;53.244;10.414;2022-09-01T16:35:09;21.50;96.70
6978;DHT22;3529;53.244;10.414;2022-09-01T16:37:50;21.50;96.20
6978;DHT22;3529;53.244;10.414;2022-09-01T16:40:36;21.50;96.60
6978;DHT22;3529;53.244;10.414;2022-09-01T16:43:27;21.40;96.50
6978;DHT22;3529;53.244;10.414;2022-09-01T16:46:08;21.40;97.20
6978;DHT22;3529;53.244;10.414;2022-09-01T16:48:55;21.30;96.90
6978;DHT22;3529;53.244;10.414;2022-09-01T16:51:32;21.10;97.30
6978;DHT22;3529;53.244;10.414;2022-09-01T16:54:19;21.10;97.10
6978;DHT22;3529;53.244;10.414;2022-09-01T17:02:32;20.80;97.50
6978;DHT22;3529;53.244;10.414;2022-09-01T17:05:26;20.70;97.70
6978;DHT22;3529;53.244;10.414;2022-09-01T17:08:11;20.50;98.30
6978;DHT22;3529;53.244;10.414;2022-09-01T17:13:17;20.50;97.80
6978;DHT22;3529;53.244;10.414;2022-09-01T17:15:51;20.50;97.60
6978;DHT22;3529;53.244;10.414;2022-09-01T17:21:01;20.30;97.80
6978;DHT22;3529;53.244;10.414;2022-09-01T17:23:32;20.30;97.80
6978;DHT22;3529;53.244;10.414;2022-09-01T17:26:04;20.20;98.00
6978;DHT22;3529;53.244;10.414;2022-09-01T17:28:46;20.20;97.90
6978;DHT22;3529;53.244;10.414;2022-09-01T17:34:11;20.00;98.10
6978;DHT22;3529;53.244;10.414;2022-09-01T17:39:26;19.80;98.90